sensor_id;sensor_type;location;lat;lon;timestamp;temperature;humidity
11239;DHT22;5677;48.488;13.436;2022-10-12T00:02:20;15.50;57.30
11239;DHT22;5677;48.488;13.436;2022-10-12T00:04:47;15.40;57.20
11239;DHT22;5677;48.488;13.436;2022-10-12T00:07:13;15.50;57.30
11239;DHT22;5677;48.488;13.436;2022-10-12T00:09:40;15.50;57.30
11239;DHT22;5677;48.488;13.436;2022-10-12T00:12:07;15.50;57.30
11239;DHT22;5677;48.488;13.436;2022-10-12T00:14:36;15.50;57.30
11239;DHT22;5677;48.488;13.436;2022-10-12T00:17:03;15.50;57.30
11239;DHT22;5677;48.488;13.436;2022-10-12T00:19:29;15.40;57.30
11239;DHT22;5677;48.488;13.436;2022-10-12T00:21:56;15.50;57.30
11239;DHT22;5677;48.488;13.436;2022-10-12T00:24:23;15.40;57.20
11239;DHT22;5677;48.488;13.436;2022-10-12T00:26:51;15.50;57.30
11239;DHT22;5677;48.488;13.436;2022-10-12T00:29:17;15.50;57.40
11239;DHT22;5677;48.488;13.436;2022-10-12T00:31:46;15.40;57.20
11239;DHT22;5677;48.488;13.436;2022-10-12T00:34:12;15.50;57.30
11239;DHT22;5677;48.488;13.436;2022-10-12T00:36:39;15.50;57.40
11239;DHT22;5677;48.488;13.436;2022-10-12T00:39:08;15.50;57.30
11239;DHT22;5677;48.488;13.436;2022-10-12T00:41:38;15.50;57.30
11239;DHT22;5677;48.488;13.436;2022-10-12T00:44:31;15.40;57.30
11239;DHT22;5677;48.488;13.436;2022-10-12T00:47:02;15.40;57.20
11239;DHT22;5677;48.488;13.436;2022-10-12T00:49:32;15.40;57.30
11239;DHT22;5677;48.488;13.436;2022-10-12T00:52:03;15.40;57.30
11239;DHT22;5677;48.488;13.436;2022-10-12T00:54:33;15.40;57.30
11239;DHT22;5677;48.488;13.436;2022-10-12T00:57:02;15.40;57.30
11239;DHT22;5677;48.488;13.436;2022-10-12T00:59:33;15.40;57.20
11239;DHT22;5677;48.488;13.436;2022-10-12T01:02:03;15.40;57.30
11239;DHT22;5677;48.488;13.436;2022-10-12T01:04:31;15.40;57.30
11239;DHT22;5677;48.488;13.436;2022-10-12T01:06:58;15.40;57.30
11239;DHT22;5677;48.488;13.436;2022-10-12T01:09:25;15.40;57.30
11239;DHT22;5677;48.488;13.436;2022-10-12T01:11:55;15.40;57.30
11239;DHT22;5677;48.488;13.436;2022-10-12T01:14:23;15.40;57.30
11239;DHT22;5677;48.488;13.436;2022-10-12T01:16:53;15.40;57.30
11239;DHT22;5677;48.488;13.436;2022-10-12T01:19:37;15.40;57.30
11239;DHT22;5677;48.488;13.436;2022-10-12T01:22:13;15.40;57.30
11239;DHT22;5677;48.488;13.436;2022-10-12T01:24:44;15.40;57.30
11239;DHT22;5677;48.488;13.436;2022-10-12T01:27:28;15.40;57.30
11239;DHT22;5677;48.488;13.436;2022-10-12T01:30:07;15.40;57.30
11239;DHT22;5677;48.488;13.436;2022-10-12T01:32:45;15.40;57.30
11239;DHT22;5677;48.488;13.436;2022-10-12T01:35:18;15.40;57.30
11239;DHT22;5677;48.488;13.436;2022-10-12T01:37:52;15.40;57.30
11239;DHT22;5677;48.488;13.436;2022-10-12T01:40:28;15.40;57.30
11239;DHT22;5677;48.488;13.436;2022-10-12T01:42:56;15.40;57.30
11239;DHT22;5677;48.488;13.436;2022-10-12T01:45:24;15.40;57.30
11239;DHT22;5677;48.488;13.436;2022-10-12T01:47:52;15.40;57.30
11239;DHT22;5677;48.488;13.436;2022-10-12T01:50:23;15.40;57.30
11239;DHT22;5677;48.488;13.436;2022-10-12T01:52:57;15.40;57.30
11239;DHT22;5677;48.488;13.436;2022-10-12T01:55:35;15.40;57.30
11239;DHT22;5677;48.488;13.436;2022-10-12T01:58:12;15.40;57.30
11239;DHT22;5677;48.488;13.436;2022-10-12T02:00:50;15.40;57.30
11239;DHT22;5677;48.488;13.436;2022-10-12T02:03:20;15.40;57.30
11239;DHT22;5677;48.488;13.436;2022-10-12T02:05:53;15.40;57.30
11239;DHT22;5677;48.488;13.436;2022-10-12T02:08:24;15.40;57.30
11239;DHT22;5677;48.488;13.436;2022-10-12T02:10:56;15.30;57.30
11239;DHT22;5677;48.488;13.436;2022-10-12T02:13:28;15.40;57.30
11239;DHT22;5677;48.488;13.436;2022-10-12T02:15:57;15.40;57.30
11239;DHT22;5677;48.488;13.436;2022-10-12T02:18:27;15.30;57.30
11239;DHT22;5677;48.488;13.436;2022-10-12T02:20:57;15.30;57.30
11239;DHT22;5677;48.488;13.436;2022-10-12T02:23:26;15.30;57.30
11239;DHT22;5677;48.488;13.436;2022-10-12T02:25:55;15.30;57.30
11239;DHT22;5677;48.488;13.436;2022-10-12T02:28:26;15.40;57.30
11239;DHT22;5677;48.488;13.436;2022-10-12T02:31:00;15.30;57.30
11239;DHT22;5677;48.488;13.436;2022-10-12T02:33:31;15.30;57.30
11239;DHT22;5677;48.488;13.436;2022-10-12T02:36:03;15.30;57.30
11239;DHT22;5677;48.488;13.436;2022-10-12T02:38:34;15.40;57.30
11239;DHT22;5677;48.488;13.436;2022-10-12T02:41:05;15.30;57.30
11239;DHT22;5677;48.488;13.436;2022-10-12T02:43:36;15.30;57.30
11239;DHT22;5677;48.488;13.436;2022-10-12T02:46:08;15.30;57.30
11239;DHT22;5677;48.488;13.436;2022-10-12T02:48:38;15.30;57.30
11239;DHT22;5677;48.488;13.436;2022-10-12T02:51:06;15.30;57.30
11239;DHT22;5677;48.488;13.436;2022-10-12T02:53:34;15.30;57.30
11239;DHT22;5677;48.488;13.436;2022-10-12T02:56:03;15.30;57.30
11239;DHT22;5677;48.488;13.436;2022-10-12T02:58:30;15.30;57.20
11239;DHT22;5677;48.488;13.436;2022-10-12T03:00:57;15.30;57.30
11239;DHT22;5677;48.488;13.436;2022-10-12T03:03:25;15.30;57.30
11239;DHT22;5677;48.488;13.436;2022-10-12T03:05:52;15.30;57.30
11239;DHT22;5677;48.488;13.436;2022-10-12T03:08:19;15.30;57.30
11239;DHT22;5677;48.488;13.436;2022-10-12T03:10:46;15.30;57.30
11239;DHT22;5677;48.488;13.436;2022-10-12T03:13:13;15.30;57.30
11239;DHT22;5677;48.488;13.436;2022-10-12T03:15:40;15.30;57.30
11239;DHT22;5677;48.488;13.436;2022-10-12T03:18:06;15.30;57.30
11239;DHT22;5677;48.488;13.436;2022-10-12T03:20:35;15.30;57.30
11239;DHT22;5677;48.488;13.436;2022-10-12T03:23:02;15.30;57.30
11239;DHT22;5677;48.488;13.436;2022-10-12T03:25:29;15.30;57.20
11239;DHT22;5677;48.488;13.436;2022-10-12T03:27:56;15.30;57.30
11239;DHT22;5677;48.488;13.436;2022-10-12T03:30:22;15.30;57.90
11239;DHT22;5677;48.488;13.436;2022-10-12T03:32:49;15.30;57.30
11239;DHT22;5677;48.488;13.436;2022-10-12T03:35:16;15.30;57.30
11239;DHT22;5677;48.488;13.436;2022-10-12T03:37:44;15.30;57.30
11239;DHT22;5677;48.488;13.436;2022-10-12T03:40:11;15.30;57.30
11239;DHT22;5677;48.488;13.436;2022-10-12T03:42:38;15.30;57.30
11239;DHT22;5677;48.488;13.436;2022-10-12T03:45:05;15.30;57.30
11239;DHT22;5677;48.488;13.436;2022-10-12T03:47:33;15.30;57.30
11239;DHT22;5677;48.488;13.436;2022-10-12T03:50:00;15.30;57.30
11239;DHT22;5677;48.488;13.436;2022-10-12T03:52:26;15.30;57.30
11239;DHT22;5677;48.488;13.436;2022-10-12T03:54:55;15.30;57.30
11239;DHT22;5677;48.488;13.436;2022-10-12T03:57:21;15.30;57.30
11239;DHT22;5677;48.488;13.436;2022-10-12T03:59:48;15.30;57.30
11239;DHT22;5677;48.488;13.436;2022-10-12T04:02:15;15.30;57.30
11239;DHT22;5677;48.488;13.436;2022-10-12T04:04:42;15.30;57.30
11239;DHT22;5677;48.488;13.436;2022-10-12T04:07:08;15.30;57.30
11239;DHT22;5677;48.488;13.436;2022-10-12T04:09:35;15.30;57.30
11239;DHT22;5677;48.488;13.436;2022-10-12T04:12:04;15.30;57.30
11239;DHT22;5677;48.488;13.436;2022-10-12T04:14:30;15.30;57.30
11239;DHT22;5677;48.488;13.436;2022-10-12T04:16:57;15.30;57.30
11239;DHT22;5677;48.488;13.436;2022-10-12T04:19:24;15.30;57.30
11239;DHT22;5677;48.488;13.436;2022-10-12T04:21:51;15.30;57.30
11239;DHT22;5677;48.488;13.436;2022-10-12T04:24:17;15.30;57.30
11239;DHT22;5677;48.488;13.436;2022-10-12T04:26:44;15.30;57.30
11239;DHT22;5677;48.488;13.436;2022-10-12T04:29:13;15.30;57.30
11239;DHT22;5677;48.488;13.436;2022-10-12T04:31:40;15.30;57.30
11239;DHT22;5677;48.488;13.436;2022-10-12T04:34:07;15.30;57.30
11239;DHT22;5677;48.488;13.436;2022-10-12T04:36:34;15.20;57.20
11239;DHT22;5677;48.488;13.436;2022-10-12T04:39:01;15.20;57.20
11239;DHT22;5677;48.488;13.436;2022-10-12T04:41:28;15.30;57.30
11239;DHT22;5677;48.488;13.436;2022-10-12T04:43:55;15.30;57.30
11239;DHT22;5677;48.488;13.436;2022-10-12T04:46:23;15.30;57.30
11239;DHT22;5677;48.488;13.436;2022-10-12T04:48:50;15.30;57.30
11239;DHT22;5677;48.488;13.436;2022-10-12T04:51:17;15.30;57.30
11239;DHT22;5677;48.488;13.436;2022-10-12T04:53:43;15.20;57.20
11239;DHT22;5677;48.488;13.436;2022-10-12T04:56:10;15.20;57.20
11239;DHT22;5677;48.488;13.436;2022-10-12T04:58:37;15.20;57.20
11239;DHT22;5677;48.488;13.436;2022-10-12T05:01:05;15.20;57.20
11239;DHT22;5677;48.488;13.436;2022-10-12T05:03:33;15.20;57.20
11239;DHT22;5677;48.488;13.436;2022-10-12T05:06:00;15.20;57.20
11239;DHT22;5677;48.488;13.436;2022-10-12T05:08:26;15.20;57.20
11239;DHT22;5677;48.488;13.436;2022-10-12T05:10:53;15.20;57.20
11239;DHT22;5677;48.488;13.436;2022-10-12T05:13:22;15.20;57.20
11239;DHT22;5677;48.488;13.436;2022-10-12T05:15:49;15.20;57.20
11239;DHT22;5677;48.488;13.436;2022-10-12T05:18:16;15.20;57.20
11239;DHT22;5677;48.488;13.436;2022-10-12T05:20:44;15.20;57.20
11239;DHT22;5677;48.488;13.436;2022-10-12T05:23:11;15.20;57.20
11239;DHT22;5677;48.488;13.436;2022-10-12T05:25:38;15.20;57.20
11239;DHT22;5677;48.488;13.436;2022-10-12T05:28:05;15.20;57.20
11239;DHT22;5677;48.488;13.436;2022-10-12T05:30:32;15.20;57.20
11239;DHT22;5677;48.488;13.436;2022-10-12T05:32:59;15.20;57.30
11239;DHT22;5677;48.488;13.436;2022-10-12T05:35:26;15.20;57.30
11239;DHT22;5677;48.488;13.436;2022-10-12T05:37:54;15.20;57.20
11239;DHT22;5677;48.488;13.436;2022-10-12T05:40:20;15.20;57.20
11239;DHT22;5677;48.488;13.436;2022-10-12T05:42:47;15.20;57.20
11239;DHT22;5677;48.488;13.436;2022-10-12T05:45:14;15.20;57.20
11239;DHT22;5677;48.488;13.436;2022-10-12T05:47:41;15.20;57.20
11239;DHT22;5677;48.488;13.436;2022-10-12T05:50:08;15.20;57.20
11239;DHT22;5677;48.488;13.436;2022-10-12T05:52:35;15.20;57.20
11239;DHT22;5677;48.488;13.436;2022-10-12T05:55:03;15.20;57.20
11239;DHT22;5677;48.488;13.436;2022-10-12T05:57:30;15.20;57.20
11239;DHT22;5677;48.488;13.436;2022-10-12T05:59:57;15.20;57.20
11239;DHT22;5677;48.488;13.436;2022-10-12T06:02:24;15.20;57.30
11239;DHT22;5677;48.488;13.436;2022-10-12T06:04:51;15.20;57.20
11239;DHT22;5677;48.488;13.436;2022-10-12T06:07:17;15.20;57.20
11239;DHT22;5677;48.488;13.436;2022-10-12T06:09:44;15.20;57.20
11239;DHT22;5677;48.488;13.436;2022-10-12T06:12:13;15.20;57.20
11239;DHT22;5677;48.488;13.436;2022-10-12T06:14:40;15.20;57.20
11239;DHT22;5677;48.488;13.436;2022-10-12T06:17:07;15.20;57.20
11239;DHT22;5677;48.488;13.436;2022-10-12T06:19:34;15.20;57.20
11239;DHT22;5677;48.488;13.436;2022-10-12T06:22:01;15.20;57.20
11239;DHT22;5677;48.488;13.436;2022-10-12T06:24:28;15.20;57.20
11239;DHT22;5677;48.488;13.436;2022-10-12T06:26:54;15.20;57.20
11239;DHT22;5677;48.488;13.436;2022-10-12T06:29:22;15.20;57.20
11239;DHT22;5677;48.488;13.436;2022-10-12T06:31:49;15.20;57.20
11239;DHT22;5677;48.488;13.436;2022-10-12T06:34:16;15.20;57.20
11239;DHT22;5677;48.488;13.436;2022-10-12T06:36:43;15.20;57.20
11239;DHT22;5677;48.488;13.436;2022-10-12T06:39:10;15.20;57.20
11239;DHT22;5677;48.488;13.436;2022-10-12T06:41:37;15.20;57.20
11239;DHT22;5677;48.488;13.436;2022-10-12T06:44:04;15.20;57.20
11239;DHT22;5677;48.488;13.436;2022-10-12T06:46:32;15.20;57.80
11239;DHT22;5677;48.488;13.436;2022-10-12T06:48:59;15.20;57.20
11239;DHT22;5677;48.488;13.436;2022-10-12T06:51:26;15.20;57.10
11239;DHT22;5677;48.488;13.436;2022-10-12T06:53:53;15.20;57.10
11239;DHT22;5677;48.488;13.436;2022-10-12T06:56:21;15.20;57.10
11239;DHT22;5677;48.488;13.436;2022-10-12T06:58:52;15.20;57.10
11239;DHT22;5677;48.488;13.436;2022-10-12T07:01:19;15.20;57.10
11239;DHT22;5677;48.488;13.436;2022-10-12T07:03:47;15.20;57.10
11239;DHT22;5677;48.488;13.436;2022-10-12T07:06:14;15.20;57.00
11239;DHT22;5677;48.488;13.436;2022-10-12T07:08:41;15.20;57.00
11239;DHT22;5677;48.488;13.436;2022-10-12T07:11:10;15.20;57.00
11239;DHT22;5677;48.488;13.436;2022-10-12T07:13:38;15.20;57.00
11239;DHT22;5677;48.488;13.436;2022-10-12T07:16:05;15.20;57.00
11239;DHT22;5677;48.488;13.436;2022-10-12T07:18:32;15.30;57.10
11239;DHT22;5677;48.488;13.436;2022-10-12T07:21:00;15.30;57.00
11239;DHT22;5677;48.488;13.436;2022-10-12T07:23:28;15.30;57.00
11239;DHT22;5677;48.488;13.436;2022-10-12T07:25:55;15.30;56.90
11239;DHT22;5677;48.488;13.436;2022-10-12T07:28:22;15.30;56.90
11239;DHT22;5677;48.488;13.436;2022-10-12T07:30:49;15.40;56.80
11239;DHT22;5677;48.488;13.436;2022-10-12T07:33:16;15.40;56.70
11239;DHT22;5677;48.488;13.436;2022-10-12T07:35:42;15.50;56.70
11239;DHT22;5677;48.488;13.436;2022-10-12T07:38:11;15.50;56.70
11239;DHT22;5677;48.488;13.436;2022-10-12T07:40:37;15.50;56.60
11239;DHT22;5677;48.488;13.436;2022-10-12T07:43:04;15.50;56.40
11239;DHT22;5677;48.488;13.436;2022-10-12T07:45:31;15.50;56.30
11239;DHT22;5677;48.488;13.436;2022-10-12T07:47:58;15.60;56.20
11239;DHT22;5677;48.488;13.436;2022-10-12T07:50:25;15.70;56.30
11239;DHT22;5677;48.488;13.436;2022-10-12T07:52:51;15.70;56.20
11239;DHT22;5677;48.488;13.436;2022-10-12T07:55:20;15.70;56.10
11239;DHT22;5677;48.488;13.436;2022-10-12T07:57:46;15.70;56.10
11239;DHT22;5677;48.488;13.436;2022-10-12T08:00:14;15.70;56.10
11239;DHT22;5677;48.488;13.436;2022-10-12T08:02:40;15.70;56.00
11239;DHT22;5677;48.488;13.436;2022-10-12T08:05:08;15.70;56.00
11239;DHT22;5677;48.488;13.436;2022-10-12T08:07:35;15.70;56.00
11239;DHT22;5677;48.488;13.436;2022-10-12T08:10:02;15.70;56.00
11239;DHT22;5677;48.488;13.436;2022-10-12T08:12:30;15.70;56.00
11239;DHT22;5677;48.488;13.436;2022-10-12T08:14:57;15.70;56.00
11239;DHT22;5677;48.488;13.436;2022-10-12T08:17:24;15.70;55.90
11239;DHT22;5677;48.488;13.436;2022-10-12T08:19:51;15.70;56.00
11239;DHT22;5677;48.488;13.436;2022-10-12T08:22:17;15.70;55.90
11239;DHT22;5677;48.488;13.436;2022-10-12T08:24:44;15.70;55.90
11239;DHT22;5677;48.488;13.436;2022-10-12T08:27:11;15.70;56.00
11239;DHT22;5677;48.488;13.436;2022-10-12T08:29:39;15.70;56.00
11239;DHT22;5677;48.488;13.436;2022-10-12T08:32:06;15.70;56.00
11239;DHT22;5677;48.488;13.436;2022-10-12T08:34:33;15.70;55.90
11239;DHT22;5677;48.488;13.436;2022-10-12T08:36:59;15.70;55.90
11239;DHT22;5677;48.488;13.436;2022-10-12T08:39:26;15.70;55.90
11239;DHT22;5677;48.488;13.436;2022-10-12T08:42:02;15.70;55.90
11239;DHT22;5677;48.488;13.436;2022-10-12T08:44:55;15.70;55.90
11239;DHT22;5677;48.488;13.436;2022-10-12T08:47:33;15.70;55.90
11239;DHT22;5677;48.488;13.436;2022-10-12T08:50:04;15.70;55.90
11239;DHT22;5677;48.488;13.436;2022-10-12T08:52:38;15.70;55.90
11239;DHT22;5677;48.488;13.436;2022-10-12T08:55:17;15.70;55.90
11239;DHT22;5677;48.488;13.436;2022-10-12T08:57:46;15.70;55.90
11239;DHT22;5677;48.488;13.436;2022-10-12T09:00:15;15.70;55.90
11239;DHT22;5677;48.488;13.436;2022-10-12T09:02:52;15.70;55.90
11239;DHT22;5677;48.488;13.436;2022-10-12T09:05:23;15.70;55.90
11239;DHT22;5677;48.488;13.436;2022-10-12T09:07:55;15.70;55.90
11239;DHT22;5677;48.488;13.436;2022-10-12T09:10:32;15.70;55.90
11239;DHT22;5677;48.488;13.436;2022-10-12T09:13:09;15.80;55.90
11239;DHT22;5677;48.488;13.436;2022-10-12T09:15:46;15.80;55.90
11239;DHT22;5677;48.488;13.436;2022-10-12T09:18:19;15.80;55.90
11239;DHT22;5677;48.488;13.436;2022-10-12T09:20:47;15.80;55.90
11239;DHT22;5677;48.488;13.436;2022-10-12T09:23:23;15.80;55.80
11239;DHT22;5677;48.488;13.436;2022-10-12T09:25:51;15.80;55.90
11239;DHT22;5677;48.488;13.436;2022-10-12T09:28:22;15.80;55.80
11239;DHT22;5677;48.488;13.436;2022-10-12T09:31:08;15.80;55.80
11239;DHT22;5677;48.488;13.436;2022-10-12T09:33:43;15.80;55.90
11239;DHT22;5677;48.488;13.436;2022-10-12T09:36:14;15.80;55.90
11239;DHT22;5677;48.488;13.436;2022-10-12T09:38:42;15.80;55.90
11239;DHT22;5677;48.488;13.436;2022-10-12T09:41:16;15.80;55.90
11239;DHT22;5677;48.488;13.436;2022-10-12T09:43:43;15.80;55.80
11239;DHT22;5677;48.488;13.436;2022-10-12T09:46:13;15.80;55.80
11239;DHT22;5677;48.488;13.436;2022-10-12T09:48:55;15.80;55.80
11239;DHT22;5677;48.488;13.436;2022-10-12T09:51:22;15.80;55.80
11239;DHT22;5677;48.488;13.436;2022-10-12T09:53:50;15.80;55.80
11239;DHT22;5677;48.488;13.436;2022-10-12T09:56:22;15.80;55.80
11239;DHT22;5677;48.488;13.436;2022-10-12T09:58:52;15.80;55.80
11239;DHT22;5677;48.488;13.436;2022-10-12T10:01:26;15.80;55.80
11239;DHT22;5677;48.488;13.436;2022-10-12T10:04:12;15.80;55.80
11239;DHT22;5677;48.488;13.436;2022-10-12T10:06:42;15.80;55.80
11239;DHT22;5677;48.488;13.436;2022-10-12T10:09:27;15.80;55.80
11239;DHT22;5677;48.488;13.436;2022-10-12T10:11:55;15.90;55.90
11239;DHT22;5677;48.488;13.436;2022-10-12T10:14:22;15.80;55.80
11239;DHT22;5677;48.488;13.436;2022-10-12T10:16:51;15.80;55.80
11239;DHT22;5677;48.488;13.436;2022-10-12T10:19:21;15.80;55.80
11239;DHT22;5677;48.488;13.436;2022-10-12T10:21:50;15.80;55.90
11239;DHT22;5677;48.488;13.436;2022-10-12T10:24:24;15.90;55.90
11239;DHT22;5677;48.488;13.436;2022-10-12T10:26:54;15.80;55.80
11239;DHT22;5677;48.488;13.436;2022-10-12T10:29:35;15.80;55.80
11239;DHT22;5677;48.488;13.436;2022-10-12T10:32:17;15.80;55.90
11239;DHT22;5677;48.488;13.436;2022-10-12T10:35:01;15.80;55.90
11239;DHT22;5677;48.488;13.436;2022-10-12T10:37:29;15.80;55.90
11239;DHT22;5677;48.488;13.436;2022-10-12T10:39:57;15.80;55.90
11239;DHT22;5677;48.488;13.436;2022-10-12T10:42:25;15.80;55.90
11239;DHT22;5677;48.488;13.436;2022-10-12T10:44:58;15.80;56.00
11239;DHT22;5677;48.488;13.436;2022-10-12T10:47:28;15.80;56.00
11239;DHT22;5677;48.488;13.436;2022-10-12T10:49:57;15.90;56.10
11239;DHT22;5677;48.488;13.436;2022-10-12T10:52:27;15.90;56.10
11239;DHT22;5677;48.488;13.436;2022-10-12T10:55:22;15.80;56.00
11239;DHT22;5677;48.488;13.436;2022-10-12T10:57:56;15.80;56.10
11239;DHT22;5677;48.488;13.436;2022-10-12T11:00:25;15.80;56.10
11239;DHT22;5677;48.488;13.436;2022-10-12T11:02:56;15.90;56.20
11239;DHT22;5677;48.488;13.436;2022-10-12T11:05:26;15.90;56.20
11239;DHT22;5677;48.488;13.436;2022-10-12T11:07:55;15.90;56.20
11239;DHT22;5677;48.488;13.436;2022-10-12T11:10:28;15.90;56.20
11239;DHT22;5677;48.488;13.436;2022-10-12T11:13:00;15.90;56.20
11239;DHT22;5677;48.488;13.436;2022-10-12T11:15:32;15.90;56.20
11239;DHT22;5677;48.488;13.436;2022-10-12T11:18:10;15.90;56.20
11239;DHT22;5677;48.488;13.436;2022-10-12T11:20:45;15.90;56.20
11239;DHT22;5677;48.488;13.436;2022-10-12T11:23:32;15.90;56.20
11239;DHT22;5677;48.488;13.436;2022-10-12T11:26:07;15.90;56.20
11239;DHT22;5677;48.488;13.436;2022-10-12T11:28:35;15.90;56.20
11239;DHT22;5677;48.488;13.436;2022-10-12T11:31:04;15.90;56.20
11239;DHT22;5677;48.488;13.436;2022-10-12T11:33:37;15.90;56.20
11239;DHT22;5677;48.488;13.436;2022-10-12T11:36:07;15.90;56.30
11239;DHT22;5677;48.488;13.436;2022-10-12T11:38:37;15.90;56.20
11239;DHT22;5677;48.488;13.436;2022-10-12T11:41:08;15.90;56.20
11239;DHT22;5677;48.488;13.436;2022-10-12T11:43:40;15.90;56.30
11239;DHT22;5677;48.488;13.436;2022-10-12T11:46:12;16.00;56.30
11239;DHT22;5677;48.488;13.436;2022-10-12T11:48:46;15.90;56.20
11239;DHT22;5677;48.488;13.436;2022-10-12T11:51:14;16.00;56.30
11239;DHT22;5677;48.488;13.436;2022-10-12T11:53:50;15.90;56.30
11239;DHT22;5677;48.488;13.436;2022-10-12T11:56:22;15.90;56.30
11239;DHT22;5677;48.488;13.436;2022-10-12T11:58:54;15.90;56.30
11239;DHT22;5677;48.488;13.436;2022-10-12T12:01:59;16.00;56.30
11239;DHT22;5677;48.488;13.436;2022-10-12T12:04:30;16.00;56.30
11239;DHT22;5677;48.488;13.436;2022-10-12T12:07:00;16.00;56.30
11239;DHT22;5677;48.488;13.436;2022-10-12T12:09:36;16.00;56.30
11239;DHT22;5677;48.488;13.436;2022-10-12T12:15:19;16.00;56.40
11239;DHT22;5677;48.488;13.436;2022-10-12T12:18:09;16.00;56.40
11239;DHT22;5677;48.488;13.436;2022-10-12T12:21:01;16.00;56.30
11239;DHT22;5677;48.488;13.436;2022-10-12T12:23:31;16.00;56.30
11239;DHT22;5677;48.488;13.436;2022-10-12T12:26:05;16.00;56.30
11239;DHT22;5677;48.488;13.436;2022-10-12T12:28:32;16.00;56.40
11239;DHT22;5677;48.488;13.436;2022-10-12T12:31:02;16.00;56.30
11239;DHT22;5677;48.488;13.436;2022-10-12T12:33:31;16.00;56.30
11239;DHT22;5677;48.488;13.436;2022-10-12T12:36:03;16.00;56.30
11239;DHT22;5677;48.488;13.436;2022-10-12T12:38:32;16.10;56.40
11239;DHT22;5677;48.488;13.436;2022-10-12T12:41:03;16.00;56.30
11239;DHT22;5677;48.488;13.436;2022-10-12T12:46:17;16.10;56.40
11239;DHT22;5677;48.488;13.436;2022-10-12T12:49:01;16.00;56.30
11239;DHT22;5677;48.488;13.436;2022-10-12T12:51:39;16.10;56.40
11239;DHT22;5677;48.488;13.436;2022-10-12T12:54:19;16.10;56.40
11239;DHT22;5677;48.488;13.436;2022-10-12T12:57:01;16.10;56.40
11239;DHT22;5677;48.488;13.436;2022-10-12T13:00:05;16.10;56.30
11239;DHT22;5677;48.488;13.436;2022-10-12T13:08:51;16.10;56.40
11239;DHT22;5677;48.488;13.436;2022-10-12T13:11:39;16.00;56.30
11239;DHT22;5677;48.488;13.436;2022-10-12T13:14:18;16.00;56.30
11239;DHT22;5677;48.488;13.436;2022-10-12T13:17:05;16.00;56.30
11239;DHT22;5677;48.488;13.436;2022-10-12T13:19:36;16.00;56.30
11239;DHT22;5677;48.488;13.436;2022-10-12T13:22:10;16.00;56.30
11239;DHT22;5677;48.488;13.436;2022-10-12T13:24:44;16.00;56.30
11239;DHT22;5677;48.488;13.436;2022-10-12T13:27:18;16.00;56.30
11239;DHT22;5677;48.488;13.436;2022-10-12T13:29:51;16.00;56.30
11239;DHT22;5677;48.488;13.436;2022-10-12T13:32:28;16.00;56.30
11239;DHT22;5677;48.488;13.436;2022-10-12T13:35:04;16.10;56.40
11239;DHT22;5677;48.488;13.436;2022-10-12T13:37:33;16.00;56.30
11239;DHT22;5677;48.488;13.436;2022-10-12T13:40:02;16.10;56.40
11239;DHT22;5677;48.488;13.436;2022-10-12T13:42:31;16.10;56.40
11239;DHT22;5677;48.488;13.436;2022-10-12T13:45:00;16.10;56.40
11239;DHT22;5677;48.488;13.436;2022-10-12T13:47:29;16.10;56.40
11239;DHT22;5677;48.488;13.436;2022-10-12T13:49:57;16.00;56.30
11239;DHT22;5677;48.488;13.436;2022-10-12T13:52:25;16.10;56.30
11239;DHT22;5677;48.488;13.436;2022-10-12T13:54:52;16.10;56.30
11239;DHT22;5677;48.488;13.436;2022-10-12T13:57:25;16.10;56.30
11239;DHT22;5677;48.488;13.436;2022-10-12T13:59:56;16.10;56.40
11239;DHT22;5677;48.488;13.436;2022-10-12T14:02:25;16.10;56.30
11239;DHT22;5677;48.488;13.436;2022-10-12T14:04:53;16.10;56.30
11239;DHT22;5677;48.488;13.436;2022-10-12T14:07:23;16.10;56.30
11239;DHT22;5677;48.488;13.436;2022-10-12T14:09:55;16.10;56.30
11239;DHT22;5677;48.488;13.436;2022-10-12T14:12:24;16.10;56.30
11239;DHT22;5677;48.488;13.436;2022-10-12T14:14:54;16.10;56.30
11239;DHT22;5677;48.488;13.436;2022-10-12T14:17:22;16.10;56.30
11239;DHT22;5677;48.488;13.436;2022-10-12T14:19:51;16.10;56.30
11239;DHT22;5677;48.488;13.436;2022-10-12T14:22:20;16.10;56.30
11239;DHT22;5677;48.488;13.436;2022-10-12T14:24:48;16.10;56.30
11239;DHT22;5677;48.488;13.436;2022-10-12T14:27:22;16.10;56.30
11239;DHT22;5677;48.488;13.436;2022-10-12T14:29:52;16.10;56.30
11239;DHT22;5677;48.488;13.436;2022-10-12T14:32:39;16.10;56.30
11239;DHT22;5677;48.488;13.436;2022-10-12T14:35:13;16.10;56.30
11239;DHT22;5677;48.488;13.436;2022-10-12T14:37:45;16.10;56.40
11239;DHT22;5677;48.488;13.436;2022-10-12T14:40:32;16.10;56.40
11239;DHT22;5677;48.488;13.436;2022-10-12T14:43:02;16.10;56.40
11239;DHT22;5677;48.488;13.436;2022-10-12T14:45:31;16.10;56.40
11239;DHT22;5677;48.488;13.436;2022-10-12T14:47:59;16.10;56.30
11239;DHT22;5677;48.488;13.436;2022-10-12T14:50:27;16.10;56.40
11239;DHT22;5677;48.488;13.436;2022-10-12T14:52:56;16.10;56.40
11239;DHT22;5677;48.488;13.436;2022-10-12T14:55:26;16.10;56.40
11239;DHT22;5677;48.488;13.436;2022-10-12T14:57:53;16.00;56.30
11239;DHT22;5677;48.488;13.436;2022-10-12T15:00:21;16.10;56.40
11239;DHT22;5677;48.488;13.436;2022-10-12T15:02:50;16.00;56.30
11239;DHT22;5677;48.488;13.436;2022-10-12T15:05:19;16.00;56.30
11239;DHT22;5677;48.488;13.436;2022-10-12T15:07:47;16.00;56.30
11239;DHT22;5677;48.488;13.436;2022-10-12T15:10:16;16.10;56.40
11239;DHT22;5677;48.488;13.436;2022-10-12T15:12:43;16.00;56.30
11239;DHT22;5677;48.488;13.436;2022-10-12T15:18:02;16.00;56.30
11239;DHT22;5677;48.488;13.436;2022-10-12T15:20:29;16.00;56.30
11239;DHT22;5677;48.488;13.436;2022-10-12T15:22:56;16.00;56.30
11239;DHT22;5677;48.488;13.436;2022-10-12T15:25:38;16.00;56.30
11239;DHT22;5677;48.488;13.436;2022-10-12T15:28:07;16.00;56.30
11239;DHT22;5677;48.488;13.436;2022-10-12T15:30:34;16.00;56.40
11239;DHT22;5677;48.488;13.436;2022-10-12T15:33:02;16.00;56.40
11239;DHT22;5677;48.488;13.436;2022-10-12T15:35:31;16.00;56.40
11239;DHT22;5677;48.488;13.436;2022-10-12T15:37:59;16.00;56.40
11239;DHT22;5677;48.488;13.436;2022-10-12T15:40:28;16.00;56.40
11239;DHT22;5677;48.488;13.436;2022-10-12T15:42:55;16.00;56.40
11239;DHT22;5677;48.488;13.436;2022-10-12T15:45:24;16.00;56.40
11239;DHT22;5677;48.488;13.436;2022-10-12T15:47:52;16.00;56.40
11239;DHT22;5677;48.488;13.436;2022-10-12T15:50:22;16.00;56.40
11239;DHT22;5677;48.488;13.436;2022-10-12T15:52:49;16.00;56.40
11239;DHT22;5677;48.488;13.436;2022-10-12T15:55:19;16.00;56.40
11239;DHT22;5677;48.488;13.436;2022-10-12T15:57:47;15.90;56.40
11239;DHT22;5677;48.488;13.436;2022-10-12T16:00:15;15.90;56.50
11239;DHT22;5677;48.488;13.436;2022-10-12T16:02:42;15.90;56.40
11239;DHT22;5677;48.488;13.436;2022-10-12T16:05:16;15.90;56.40